Time;durP1;ratioP1;P1;durP2;ratioP2;P2;SDS_P1;SDS_P2;PMS_P1;PMS_P2;Temp;Humidity;BMP_temperature;BMP_pressure;BME280_temperature;BME280_humidity;BME280_pressure;Samples;Min_cycle;Max_cycle;Signal;HPM_P1;HPM_P2
2022/10/21 00:02:14;;;;;;;5.23;3.93;;;10.10;99.90;;;;;;5078971;28;20442;-51
2022/10/21 00:04:41;;;;;;;5.40;4.37;;;10.10;99.90;;;;;;5078711;28;20954;-51
2022/10/21 00:07:11;;;;;;;6.93;3.80;;;10.00;99.90;;;;;;5079002;28;20478;-55
2022/10/21 00:09:37;;;;;;;6.37;3.93;;;10.10;99.90;;;;;;5078498;28;20462;-57
2022/10/21 00:12:06;;;;;;;10.37;3.77;;;10.00;99.90;;;;;;5078972;28;20830;-52
2022/10/21 00:14:33;;;;;;;5.90;4.60;;;10.00;99.90;;;;;;5080334;28;20442;-56
2022/10/21 00:17:00;;;;;;;7.67;4.10;;;9.90;99.90;;;;;;5086687;28;20526;-55
2022/10/21 00:19:27;;;;;;;14.30;4.57;;;9.90;99.90;;;;;;5080778;28;20449;-56
2022/10/21 00:21:53;;;;;;;5.70;3.57;;;9.90;99.90;;;;;;5076408;28;20481;-57
2022/10/21 00:24:21;;;;;;;6.90;4.83;;;10.00;99.90;;;;;;5078417;28;20457;-56
2022/10/21 00:26:50;;;;;;;5.83;4.17;;;9.90;99.90;;;;;;5081908;28;20486;-55
2022/10/21 00:29:16;;;;;;;5.50;4.03;;;10.00;99.90;;;;;;5085405;28;20438;-53
2022/10/21 00:31:43;;;;;;;6.97;4.30;;;9.90;99.90;;;;;;5085020;28;20442;-57
2022/10/21 00:34:10;;;;;;;7.57;5.10;;;10.00;99.90;;;;;;5085243;28;20444;-57
2022/10/21 00:36:37;;;;;;;6.67;4.37;;;10.00;99.90;;;;;;5085807;28;20458;-55
2022/10/21 00:39:04;;;;;;;5.90;3.80;;;10.00;99.90;;;;;;5085833;28;20470;-54
2022/10/21 00:41:32;;;;;;;4.83;3.47;;;10.00;99.90;;;;;;5085833;28;20461;-54
2022/10/21 00:44:03;;;;;;;5.00;3.40;;;10.00;99.90;;;;;;5085808;28;20469;-52
2022/10/21 00:46:37;;;;;;;6.10;3.97;;;9.90;99.90;;;;;;5084772;28;20534;-56
2022/10/21 00:49:08;;;;;;;6.90;3.93;;;9.90;99.90;;;;;;5088382;28;20425;-56
2022/10/21 00:51:38;;;;;;;6.17;4.33;;;9.90;99.90;;;;;;5088761;28;20435;-52
2022/10/21 00:54:06;;;;;;;7.77;4.60;;;10.00;99.90;;;;;;5088673;28;20442;-56
2022/10/21 00:56:36;;;;;;;5.40;3.67;;;10.00;99.90;;;;;;5088895;28;20534;-52
2022/10/21 00:59:05;;;;;;;6.93;4.33;;;10.00;99.90;;;;;;5088452;28;20457;-56
2022/10/21 01:01:32;;;;;;;10.73;4.90;;;10.00;99.90;;;;;;5080899;28;20918;-53
2022/10/21 01:04:00;;;;;;;7.80;5.07;;;10.10;99.90;;;;;;5082170;28;20438;-57
2022/10/21 01:06:27;;;;;;;8.23;3.80;;;10.10;99.90;;;;;;5083005;28;20485;-57
2022/10/21 01:08:56;;;;;;;9.80;4.50;;;10.10;99.90;;;;;;5082429;28;20452;-57
2022/10/21 01:11:25;;;;;;;9.70;4.47;;;10.10;99.90;;;;;;5077743;28;20526;-52
2022/10/21 01:14:09;;;;;;;13.03;4.90;;;10.10;99.90;;;;;;5080308;28;20798;-57
2022/10/21 01:16:45;;;;;;;8.43;4.33;;;10.10;99.90;;;;;;5082416;28;20429;-52
2022/10/21 01:19:38;;;;;;;10.40;5.17;;;10.10;99.90;;;;;;5077104;28;20465;-51
2022/10/21 01:22:22;;;;;;;7.23;4.37;;;10.10;99.90;;;;;;5082191;28;20644;-53
2022/10/21 01:25:05;;;;;;;14.93;4.20;;;10.10;99.90;;;;;;5087667;28;20470;-54
2022/10/21 01:27:43;;;;;;;6.47;5.00;;;10.10;99.90;;;;;;5079733;28;20477;-56
2022/10/21 01:30:26;;;;;;;7.30;4.30;;;10.10;99.90;;;;;;5088554;28;20424;-56
2022/10/21 01:33:21;;;;;;;8.33;4.73;;;10.00;99.90;;;;;;5091487;28;20430;-56
2022/10/21 01:35:52;;;;;;;5.83;3.83;;;10.10;99.90;;;;;;5074199;28;21089;-56
2022/10/21 01:38:23;;;;;;;8.53;3.97;;;10.10;99.90;;;;;;5087622;28;20466;-57
2022/10/21 01:40:58;;;;;;;20.07;4.30;;;10.10;99.90;;;;;;5087022;28;20434;-55
2022/10/21 01:43:37;;;;;;;9.07;3.90;;;10.10;99.90;;;;;;5086684;28;20560;-54
2022/10/21 01:46:11;;;;;;;6.50;4.00;;;10.20;99.90;;;;;;5087762;28;20456;-56
2022/10/21 01:48:42;;;;;;;7.53;4.40;;;10.10;99.90;;;;;;5086768;28;20430;-55
2022/10/21 01:51:10;;;;;;;7.33;4.60;;;10.10;99.90;;;;;;5087089;28;20438;-56
2022/10/21 01:53:42;;;;;;;5.50;4.00;;;10.20;99.90;;;;;;5086840;28;20494;-57
2022/10/21 01:56:12;;;;;;;4.47;3.40;;;10.10;99.90;;;;;;5086968;28;20486;-55
2022/10/21 01:58:42;;;;;;;6.37;4.10;;;10.10;99.90;;;;;;5086190;28;20438;-56
2022/10/21 02:01:13;;;;;;;5.93;3.67;;;10.10;99.90;;;;;;5066424;28;20466;-57
2022/10/21 02:03:44;;;;;;;4.70;3.67;;;10.20;99.90;;;;;;5075343;28;20431;-55
2022/10/21 02:06:12;;;;;;;8.63;4.17;;;10.30;99.90;;;;;;5080543;28;20437;-56
2022/10/21 02:08:40;;;;;;;5.17;3.90;;;10.30;99.90;;;;;;5097920;28;20513;-52
2022/10/21 02:11:09;;;;;;;9.00;4.63;;;10.30;99.90;;;;;;5106386;28;20461;-54
2022/10/21 02:13:42;;;;;;;7.10;3.80;;;10.30;99.90;;;;;;5112514;28;20514;-49
2022/10/21 02:16:16;;;;;;;6.27;4.00;;;10.40;99.90;;;;;;5093073;28;20486;-56
2022/10/21 02:18:43;;;;;;;8.90;4.70;;;10.40;99.90;;;;;;5086890;28;20446;-51
2022/10/21 02:21:17;;;;;;;4.57;3.57;;;10.40;99.90;;;;;;5099228;28;20437;-57
2022/10/21 02:23:54;;;;;;;8.40;4.10;;;10.40;99.90;;;;;;5094295;28;20411;-57
2022/10/21 02:26:22;;;;;;;7.00;4.10;;;10.40;99.90;;;;;;5096094;28;20438;-56
2022/10/21 02:28:49;;;;;;;6.57;4.47;;;10.40;99.90;;;;;;5095253;28;20522;-57
2022/10/21 02:31:35;;;;;;;8.63;4.60;;;10.40;99.90;;;;;;5082553;28;20469;-58
2022/10/21 02:34:13;;;;;;;9.10;4.40;;;10.40;99.90;;;;;;5062821;28;20427;-52
2022/10/21 02:36:54;;;;;;;7.47;4.93;;;10.50;99.90;;;;;;5091859;28;20921;-55
2022/10/21 02:39:26;;;;;;;9.23;4.40;;;10.40;99.90;;;;;;5073106;28;20526;-56
2022/10/21 02:41:56;;;;;;;5.17;4.30;;;10.50;99.90;;;;;;5093889;28;20487;-50
2022/10/21 02:44:23;;;;;;;8.90;4.10;;;10.50;99.90;;;;;;5077400;28;20450;-52
2022/10/21 02:46:52;;;;;;;9.10;4.33;;;10.40;99.90;;;;;;5082136;28;20474;-55
2022/10/21 02:49:19;;;;;;;6.37;4.07;;;10.40;99.90;;;;;;5093977;28;20450;-49
2022/10/21 02:51:46;;;;;;;5.17;3.93;;;10.50;99.90;;;;;;5090022;28;20430;-55
2022/10/21 02:54:14;;;;;;;7.43;4.30;;;10.50;99.90;;;;;;5097577;28;20850;-54
2022/10/21 02:56:48;;;;;;;9.17;4.73;;;10.60;99.90;;;;;;5097306;28;20469;-49
2022/10/21 02:59:20;;;;;;;12.90;5.60;;;10.60;99.90;;;;;;5086158;28;20433;-55
2022/10/21 03:01:47;;;;;;;10.90;4.57;;;10.60;99.90;;;;;;5080877;28;20454;-57
2022/10/21 03:04:15;;;;;;;6.77;3.93;;;10.60;99.90;;;;;;5082938;28;20449;-53
2022/10/21 03:06:45;;;;;;;10.23;4.73;;;10.70;99.90;;;;;;5097913;28;20474;-50
2022/10/21 03:09:18;;;;;;;6.27;4.60;;;10.60;99.90;;;;;;5089492;28;20430;-51
2022/10/21 03:11:45;;;;;;;12.33;5.00;;;10.60;99.90;;;;;;5091763;28;20474;-48
2022/10/21 03:14:12;;;;;;;5.70;4.07;;;10.60;99.90;;;;;;5092886;28;20463;-53
2022/10/21 03:16:39;;;;;;;7.70;4.70;;;10.60;99.90;;;;;;5093660;28;20428;-53
2022/10/21 03:19:06;;;;;;;7.63;5.00;;;10.60;99.90;;;;;;5099469;28;20457;-51
2022/10/21 03:21:34;;;;;;;18.10;5.20;;;10.60;99.90;;;;;;5099296;28;20476;-51
2022/10/21 03:24:06;;;;;;;9.40;4.27;;;10.60;99.90;;;;;;5096371;28;20465;-46
2022/10/21 03:26:33;;;;;;;8.43;4.70;;;10.60;99.90;;;;;;5095995;28;20513;-50
2022/10/21 03:29:01;;;;;;;8.33;5.07;;;10.60;99.90;;;;;;5111267;28;20473;-56
2022/10/21 03:31:28;;;;;;;6.70;5.27;;;10.70;99.90;;;;;;5091983;28;20924;-49
2022/10/21 03:33:55;;;;;;;5.97;4.70;;;10.70;99.90;;;;;;5097487;28;20445;-51
2022/10/21 03:36:27;;;;;;;6.63;4.33;;;10.70;99.90;;;;;;5100743;28;20500;-56
2022/10/21 03:38:55;;;;;;;9.50;4.83;;;10.70;99.90;;;;;;5092181;28;20450;-49
2022/10/21 03:41:22;;;;;;;9.13;5.20;;;10.70;99.90;;;;;;5100170;28;20446;-53
2022/10/21 03:43:52;;;;;;;5.53;4.00;;;10.80;99.90;;;;;;5112542;28;20481;-51
2022/10/21 03:46:19;;;;;;;6.77;4.80;;;10.70;99.90;;;;;;5113317;28;20426;-55
2022/10/21 03:48:46;;;;;;;6.67;4.43;;;10.70;99.90;;;;;;5114250;28;20490;-56
2022/10/21 03:51:15;;;;;;;18.03;5.27;;;10.70;99.90;;;;;;5114117;28;20447;-54
2022/10/21 03:53:46;;;;;;;8.60;5.00;;;10.70;99.90;;;;;;5113798;28;20516;-55
2022/10/21 03:56:14;;;;;;;6.60;4.67;;;10.80;99.90;;;;;;5111302;28;20488;-56
2022/10/21 03:58:41;;;;;;;8.83;5.00;;;10.80;99.90;;;;;;5110511;28;20437;-57
2022/10/21 04:01:11;;;;;;;8.53;4.80;;;10.80;99.90;;;;;;5109598;28;20445;-56
2022/10/21 04:03:38;;;;;;;7.83;5.40;;;10.70;99.90;;;;;;5109242;28;20495;-56
2022/10/21 04:06:05;;;;;;;8.87;5.00;;;10.70;99.90;;;;;;5088142;28;20518;-57
2022/10/21 04:08:32;;;;;;;8.00;5.07;;;10.70;99.90;;;;;;5088089;28;20490;-58
2022/10/21 04:10:59;;;;;;;6.83;4.30;;;10.70;99.90;;;;;;5092863;28;20460;-58
2022/10/21 04:13:27;;;;;;;6.50;4.63;;;10.70;99.90;;;;;;5088592;28;20536;-55
2022/10/21 04:15:58;;;;;;;7.80;5.37;;;10.70;99.90;;;;;;5087727;28;20783;-56
2022/10/21 04:18:25;;;;;;;8.43;4.57;;;10.70;99.90;;;;;;5088639;28;20744;-50
2022/10/21 04:20:54;;;;;;;6.87;4.97;;;10.80;99.90;;;;;;5092477;28;20451;-53
2022/10/21 04:23:21;;;;;;;10.97;5.60;;;10.80;99.90;;;;;;5092393;28;20739;-49
2022/10/21 04:25:47;;;;;;;8.63;5.10;;;10.80;99.90;;;;;;5092605;28;20468;-49
2022/10/21 04:28:14;;;;;;;8.00;5.00;;;10.80;99.90;;;;;;5099738;28;20484;-51
2022/10/21 04:30:45;;;;;;;9.13;5.77;;;10.80;99.90;;;;;;5101393;28;20450;-52
2022/10/21 04:33:12;;;;;;;10.40;5.47;;;10.70;99.90;;;;;;5096819;28;20477;-57
2022/10/21 04:35:41;;;;;;;7.80;5.07;;;10.70;99.90;;;;;;5089516;28;20443;-51
2022/10/21 04:38:10;;;;;;;9.97;5.07;;;10.70;99.90;;;;;;5088216;28;20476;-55
2022/10/21 04:40:37;;;;;;;7.40;4.83;;;10.70;99.90;;;;;;5088267;28;20522;-55
2022/10/21 04:43:05;;;;;;;11.53;5.57;;;10.70;99.90;;;;;;5088200;28;20533;-52
2022/10/21 04:45:38;;;;;;;6.83;3.80;;;10.70;99.90;;;;;;5088704;28;20470;-51
2022/10/21 04:48:12;;;;;;;9.37;5.17;;;10.70;99.90;;;;;;5088574;28;20556;-53
2022/10/21 04:50:39;;;;;;;7.23;5.13;;;10.90;99.90;;;;;;5089516;28;20758;-54
2022/10/21 04:53:06;;;;;;;8.47;4.67;;;10.70;99.90;;;;;;5089125;28;20431;-52
2022/10/21 04:55:32;;;;;;;8.20;5.97;;;10.70;99.90;;;;;;5089535;28;20509;-55
2022/10/21 04:58:04;;;;;;;8.57;6.03;;;10.70;99.90;;;;;;5089040;28;20473;-55
2022/10/21 05:00:31;;;;;;;9.60;5.07;;;10.70;99.90;;;;;;5089230;28;20431;-58
2022/10/21 05:02:58;;;;;;;7.80;5.03;;;10.70;99.90;;;;;;5089503;28;20477;-56
2022/10/21 05:05:26;;;;;;;5.33;4.50;;;10.70;99.90;;;;;;5089257;28;20426;-52
2022/10/21 05:07:53;;;;;;;6.07;5.07;;;10.70;99.90;;;;;;5089988;28;20560;-55
2022/10/21 05:10:21;;;;;;;9.23;5.20;;;10.70;99.90;;;;;;5089835;28;20477;-57
2022/10/21 05:12:48;;;;;;;9.07;5.70;;;10.70;99.90;;;;;;5089260;28;20442;-55
2022/10/21 05:15:14;;;;;;;9.40;5.77;;;10.70;99.90;;;;;;5089378;28;20489;-61
2022/10/21 05:17:41;;;;;;;7.67;5.13;;;10.70;99.90;;;;;;5089107;28;20529;-57
2022/10/21 05:20:09;;;;;;;12.90;5.73;;;10.70;99.90;;;;;;5089565;28;20450;-58
2022/10/21 05:22:37;;;;;;;10.43;5.80;;;10.70;99.90;;;;;;5088592;28;20454;-57
2022/10/21 05:25:06;;;;;;;9.37;5.07;;;10.80;99.90;;;;;;5089015;28;20462;-56
2022/10/21 05:27:33;;;;;;;17.13;6.00;;;10.80;99.90;;;;;;5089278;28;20458;-55
2022/10/21 05:29:59;;;;;;;12.77;7.00;;;10.80;99.90;;;;;;5089377;28;20480;-57
2022/10/21 05:32:27;;;;;;;8.80;6.60;;;10.80;99.90;;;;;;5089034;28;20798;-51
2022/10/21 05:34:54;;;;;;;10.83;5.30;;;10.80;99.90;;;;;;5090659;28;20467;-57
2022/10/21 05:37:47;;;;;;;7.07;5.57;;;10.80;99.90;;;;;;5092793;28;20537;-59
2022/10/21 05:40:14;;;;;;;7.03;5.20;;;10.80;99.90;;;;;;5092605;28;20488;-53
2022/10/21 05:42:40;;;;;;;9.87;5.67;;;10.80;99.90;;;;;;5093239;28;20851;-57
2022/10/21 05:45:09;;;;;;;9.70;5.93;;;10.90;99.90;;;;;;5092377;28;20458;-55
2022/10/21 05:47:35;;;;;;;12.33;6.20;;;10.90;99.90;;;;;;5092806;28;20434;-56
2022/10/21 05:50:02;;;;;;;8.37;5.60;;;10.80;99.90;;;;;;5092179;28;20465;-50
2022/10/21 05:52:29;;;;;;;13.53;6.57;;;10.80;99.90;;;;;;5092512;28;20462;-54
2022/10/21 05:54:57;;;;;;;11.27;6.13;;;10.70;99.90;;;;;;5092687;28;20442;-53
2022/10/21 05:57:24;;;;;;;9.57;5.77;;;10.80;99.90;;;;;;5091939;28;20454;-48
2022/10/21 05:59:51;;;;;;;12.40;7.40;;;10.80;99.90;;;;;;5092079;28;20842;-52
2022/10/21 06:02:18;;;;;;;11.40;7.03;;;10.80;99.90;;;;;;5092135;28;20450;-57
2022/10/21 06:04:46;;;;;;;8.00;6.33;;;10.80;99.90;;;;;;5092531;28;20468;-54
2022/10/21 06:07:13;;;;;;;7.77;5.30;;;10.80;99.90;;;;;;5092384;28;20442;-57
2022/10/21 06:09:41;;;;;;;8.67;5.73;;;10.80;99.90;;;;;;5092308;28;20474;-54
2022/10/21 06:12:09;;;;;;;9.80;6.50;;;10.80;99.90;;;;;;5092143;28;20495;-58
2022/10/21 06:14:36;;;;;;;9.97;5.73;;;10.80;99.90;;;;;;5091787;28;20561;-54
2022/10/21 06:17:03;;;;;;;13.03;6.33;;;10.90;99.90;;;;;;5091947;28;20463;-57
2022/10/21 06:19:30;;;;;;;7.97;5.60;;;10.90;99.90;;;;;;5098323;28;20530;-58
2022/10/21 06:21:57;;;;;;;10.37;6.77;;;10.90;99.90;;;;;;5102818;28;20813;-52
2022/10/21 06:24:24;;;;;;;10.10;6.90;;;10.90;99.90;;;;;;5101710;28;20430;-56
2022/10/21 06:26:51;;;;;;;17.57;6.70;;;11.00;99.90;;;;;;5101748;28;20476;-53
2022/10/21 06:29:20;;;;;;;8.03;5.73;;;11.00;99.90;;;;;;5094022;28;20573;-52
2022/10/21 06:31:47;;;;;;;7.53;5.57;;;11.00;99.90;;;;;;5090297;28;20454;-54
2022/10/21 06:34:14;;;;;;;11.53;6.97;;;11.00;99.90;;;;;;5090404;28;20477;-58
2022/10/21 06:36:41;;;;;;;13.17;6.50;;;11.00;99.90;;;;;;5100190;28;20452;-52
2022/10/21 06:39:10;;;;;;;13.63;7.07;;;11.10;99.90;;;;;;5100577;28;20898;-50
2022/10/21 06:41:38;;;;;;;9.23;5.90;;;11.10;99.90;;;;;;5099574;28;20473;-51
2022/10/21 06:44:05;;;;;;;19.33;7.77;;;11.10;99.90;;;;;;5098879;28;20438;-51
2022/10/21 06:46:33;;;;;;;11.30;6.87;;;11.10;99.90;;;;;;5100584;28;20445;-57
2022/10/21 06:49:00;;;;;;;11.70;7.30;;;11.10;99.90;;;;;;5100020;28;21062;-57
2022/10/21 06:51:28;;;;;;;10.67;7.37;;;11.10;99.90;;;;;;5100699;28;20672;-57
2022/10/21 06:53:56;;;;;;;11.83;6.80;;;11.10;99.90;;;;;;5096908;28;20459;-57
2022/10/21 06:56:23;;;;;;;14.27;7.77;;;11.10;99.90;;;;;;5094908;28;20506;-55
2022/10/21 06:58:51;;;;;;;11.80;7.27;;;11.10;99.90;;;;;;5086236;28;20434;-56
2022/10/21 07:01:22;;;;;;;8.33;5.50;;;11.10;99.90;;;;;;5097211;28;20426;-54
2022/10/21 07:03:51;;;;;;;15.23;7.13;;;11.20;99.90;;;;;;5096981;28;20441;-57
2022/10/21 07:06:18;;;;;;;11.40;7.67;;;11.20;99.90;;;;;;5091428;28;20453;-55
2022/10/21 07:08:45;;;;;;;9.23;6.50;;;11.20;99.90;;;;;;5094584;28;20471;-53
2022/10/21 07:11:13;;;;;;;15.07;7.20;;;11.20;99.90;;;;;;5067116;28;20469;-53
2022/10/21 07:13:45;;;;;;;12.53;7.20;;;11.30;99.90;;;;;;5077062;28;20427;-52
2022/10/21 07:16:17;;;;;;;14.00;7.23;;;11.30;99.90;;;;;;5080742;28;20431;-53
2022/10/21 07:18:45;;;;;;;13.87;7.03;;;11.30;99.90;;;;;;5093782;28;20465;-42
2022/10/21 07:21:16;;;;;;;11.63;6.90;;;11.30;99.90;;;;;;5101293;28;20446;-54
2022/10/21 07:23:44;;;;;;;11.90;7.63;;;11.40;99.90;;;;;;5086130;28;20465;-39
2022/10/21 07:26:11;;;;;;;10.00;6.23;;;11.40;99.90;;;;;;5094672;28;20461;-42
2022/10/21 07:28:39;;;;;;;12.57;7.93;;;11.40;99.90;;;;;;5103823;28;20541;-43
2022/10/21 07:31:06;;;;;;;9.50;6.70;;;11.40;99.90;;;;;;5101333;28;20462;-39
2022/10/21 07:33:34;;;;;;;10.93;8.53;;;11.40;99.90;;;;;;5095821;28;20435;-40
2022/10/21 07:36:06;;;;;;;15.73;7.37;;;11.40;99.90;;;;;;5093094;28;20470;-40
2022/10/21 07:38:34;;;;;;;11.70;6.50;;;11.40;99.90;;;;;;5092289;28;20913;-39
2022/10/21 07:41:01;;;;;;;8.93;6.07;;;11.40;99.90;;;;;;5102690;28;20527;-39
2022/10/21 07:43:28;;;;;;;9.83;5.97;;;11.50;99.90;;;;;;5102271;28;20454;-40
2022/10/21 07:45:57;;;;;;;13.93;7.33;;;11.60;99.90;;;;;;5099328;28;20440;-41
2022/10/21 07:48:24;;;;;;;9.20;6.37;;;11.60;99.90;;;;;;5110542;28;20501;-42
2022/10/21 07:50:51;;;;;;;9.43;6.20;;;11.70;99.90;;;;;;5108392;28;20456;-39
2022/10/21 07:53:20;;;;;;;9.87;6.00;;;11.80;99.90;;;;;;5107145;28;20495;-40
2022/10/21 07:55:48;;;;;;;8.80;6.47;;;11.80;99.90;;;;;;5096547;28;20441;-40
2022/10/21 07:58:15;;;;;;;8.83;6.60;;;11.80;99.90;;;;;;5097015;28;20461;-38
2022/10/21 08:00:43;;;;;;;8.13;5.57;;;11.90;99.90;;;;;;5118570;28;20430;-37
2022/10/21 08:03:11;;;;;;;9.63;5.80;;;11.90;99.90;;;;;;5116015;28;20448;-39
2022/10/21 08:05:40;;;;;;;10.30;5.67;;;11.90;99.90;;;;;;5113470;28;20445;-40
2022/10/21 08:08:07;;;;;;;11.30;7.20;;;11.90;99.90;;;;;;5107593;28;20917;-41
2022/10/21 08:10:39;;;;;;;9.30;6.80;;;12.00;99.90;;;;;;5095732;28;20456;-40
2022/10/21 08:13:07;;;;;;;11.33;6.73;;;12.00;99.90;;;;;;5094488;28;20449;-40
2022/10/21 08:15:34;;;;;;;11.30;7.50;;;12.10;99.90;;;;;;5094740;28;20470;-40
2022/10/21 08:18:01;;;;;;;12.70;7.00;;;12.10;99.90;;;;;;5094659;28;20457;-40
2022/10/21 08:20:28;;;;;;;10.43;7.17;;;12.10;99.90;;;;;;5094417;28;20475;-39
2022/10/21 08:22:54;;;;;;;8.60;6.70;;;12.10;99.90;;;;;;5094215;28;20446;-39
2022/10/21 08:25:21;;;;;;;11.00;6.27;;;12.10;99.90;;;;;;5094240;28;20767;-41
2022/10/21 08:27:48;;;;;;;15.60;6.67;;;12.20;99.90;;;;;;5094535;28;20800;-40
2022/10/21 08:30:16;;;;;;;9.30;5.83;;;12.30;99.90;;;;;;5094139;28;21107;-40
2022/10/21 08:32:43;;;;;;;12.33;6.13;;;12.50;99.90;;;;;;5094092;28;20961;-40
2022/10/21 08:35:10;;;;;;;15.30;7.33;;;12.80;99.90;;;;;;5094551;28;20454;-41
2022/10/21 08:37:37;;;;;;;9.50;7.40;;;13.00;99.90;;;;;;5095320;28;20479;-39
2022/10/21 08:40:04;;;;;;;10.90;6.30;;;13.10;99.90;;;;;;5097020;28;20450;-39
2022/10/21 08:42:31;;;;;;;11.63;6.63;;;13.30;99.90;;;;;;5094138;28;20526;-42
2022/10/21 08:45:01;;;;;;;9.60;6.57;;;13.40;99.90;;;;;;5094180;28;20469;-42
2022/10/21 08:47:43;;;;;;;11.27;6.43;;;13.40;99.90;;;;;;5094273;28;20831;-39
2022/10/21 08:50:14;;;;;;;10.03;7.37;;;13.40;99.90;;;;;;5094659;28;20453;-40
2022/10/21 08:52:43;;;;;;;8.67;6.07;;;13.50;99.90;;;;;;5094656;28;20442;-41
2022/10/21 08:55:18;;;;;;;10.23;7.23;;;13.60;99.90;;;;;;5095747;28;20469;-40
2022/10/21 08:57:46;;;;;;;10.23;6.53;;;13.80;99.90;;;;;;5096362;28;20436;-39
2022/10/21 09:00:19;;;;;;;10.77;7.00;;;13.90;99.90;;;;;;5095738;28;20476;-41
2022/10/21 09:03:07;;;;;;;10.03;6.30;;;13.90;99.90;;;;;;5099799;28;20454;-40
2022/10/21 09:05:51;;;;;;;9.77;7.07;;;14.00;99.90;;;;;;5098449;28;20465;-39
2022/10/21 09:08:26;;;;;;;10.03;7.17;;;13.90;99.90;;;;;;5099905;28;20741;-41
2022/10/21 09:11:01;;;;;;;6.07;5.10;;;13.90;99.90;;;;;;5100760;28;20426;-40
2022/10/21 09:13:56;;;;;;;8.30;5.23;;;13.90;99.90;;;;;;5102604;28;20773;-40
2022/10/21 09:16:31;;;;;;;10.57;6.53;;;13.90;99.90;;;;;;5098616;28;20449;-39
2022/10/21 09:19:11;;;;;;;11.40;7.23;;;13.90;99.90;;;;;;5100187;28;20440;-39
2022/10/21 09:21:56;;;;;;;11.70;7.17;;;14.00;99.90;;;;;;5105281;28;20421;-43
2022/10/21 09:24:33;;;;;;;10.20;6.80;;;14.20;99.90;;;;;;5094435;28;20426;-40
2022/10/21 09:27:02;;;;;;;9.23;6.70;;;14.40;99.90;;;;;;5099697;28;20445;-40
2022/10/21 09:29:33;;;;;;;11.00;6.40;;;14.60;99.90;;;;;;5100126;28;20496;-38
2022/10/21 09:32:14;;;;;;;8.93;6.10;;;15.00;99.90;;;;;;5102901;28;20445;-39
2022/10/21 09:34:47;;;;;;;7.27;6.33;;;16.30;99.90;;;;;;5105228;28;20438;-39
2022/10/21 09:37:22;;;;;;;9.40;6.00;;;17.70;99.90;;;;;;5098946;28;20419;-42
2022/10/21 09:39:58;;;;;;;9.00;5.70;;;19.00;99.90;;;;;;5092984;28;20480;-38
2022/10/21 09:42:25;;;;;;;6.50;5.90;;;19.90;99.90;;;;;;5098466;28;20456;-40
2022/10/21 09:44:52;;;;;;;7.93;5.77;;;20.40;99.90;;;;;;5098614;28;20506;-42
2022/10/21 09:47:21;;;;;;;7.37;5.63;;;20.50;99.90;;;;;;5105488;28;20435;-36
2022/10/21 09:49:52;;;;;;;8.77;5.33;;;20.30;99.90;;;;;;5105702;28;20493;-43
2022/10/21 09:52:21;;;;;;;7.33;6.10;;;19.60;99.90;;;;;;5103301;28;20466;-41
2022/10/21 09:54:49;;;;;;;11.70;7.17;;;19.20;99.90;;;;;;5094758;28;20456;-40
2022/10/21 09:57:22;;;;;;;10.30;6.97;;;18.60;99.90;;;;;;5094940;28;20465;-41
2022/10/21 09:59:54;;;;;;;8.30;6.97;;;18.20;99.90;;;;;;5095620;28;20442;-39
2022/10/21 10:02:30;;;;;;;9.17;6.13;;;17.90;99.90;;;;;;5095410;28;20517;-37
2022/10/21 10:04:58;;;;;;;9.17;7.33;;;17.80;99.90;;;;;;5096498;28;20478;-37
2022/10/21 10:07:33;;;;;;;10.73;7.63;;;18.00;99.90;;;;;;5095997;28;20510;-35
2022/10/21 10:09:59;;;;;;;7.27;5.53;;;18.60;99.90;;;;;;5096667;28;20474;-39
2022/10/21 10:12:27;;;;;;;13.30;6.20;;;19.00;99.90;;;;;;5099385;28;20506;-38
2022/10/21 10:14:55;;;;;;;7.83;6.80;;;19.00;99.90;;;;;;5099520;28;20533;-43
2022/10/21 10:17:28;;;;;;;11.00;6.47;;;19.00;99.90;;;;;;5097052;28;20443;-40
2022/10/21 10:20:14;;;;;;;8.70;5.93;;;18.60;99.90;;;;;;5096983;28;20430;-43
2022/10/21 10:22:42;;;;;;;10.97;6.17;;;18.50;99.90;;;;;;5099590;28;20495;-41
2022/10/21 10:25:20;;;;;;;6.23;5.23;;;18.70;99.90;;;;;;5104112;28;20502;-39
2022/10/21 10:27:49;;;;;;;10.03;6.60;;;19.10;99.90;;;;;;5100260;28;20481;-42
2022/10/21 10:30:17;;;;;;;7.67;6.37;;;19.40;99.90;;;;;;5101866;28;20526;-41
2022/10/21 10:32:46;;;;;;;15.20;6.43;;;19.60;99.90;;;;;;5095683;28;20496;-39
2022/10/21 10:35:25;;;;;;;7.50;5.97;;;19.50;99.90;;;;;;5093850;28;20528;-42
2022/10/21 10:37:53;;;;;;;9.57;6.20;;;19.10;99.90;;;;;;5085520;28;20470;-41
2022/10/21 10:40:24;;;;;;;8.67;6.17;;;18.80;99.90;;;;;;5101317;28;20474;-41
2022/10/21 10:42:57;;;;;;;11.73;7.53;;;18.60;99.90;;;;;;5081202;28;20476;-40
2022/10/21 10:45:24;;;;;;;9.90;6.07;;;18.40;99.90;;;;;;5083499;28;20455;-42
2022/10/21 10:47:59;;;;;;;9.87;5.60;;;18.60;99.90;;;;;;5090480;28;20460;-39
2022/10/21 10:50:47;;;;;;;9.67;6.30;;;18.80;99.90;;;;;;5087524;28;20492;-41
2022/10/21 10:53:32;;;;;;;6.73;6.03;;;19.00;99.90;;;;;;5084142;28;20434;-41
2022/10/21 10:56:06;;;;;;;8.53;6.13;;;19.10;99.90;;;;;;5079118;28;20453;-42
2022/10/21 10:58:36;;;;;;;9.77;6.67;;;19.30;99.90;;;;;;5066815;28;20448;-41
2022/10/21 11:01:09;;;;;;;8.73;5.60;;;19.40;99.90;;;;;;5080043;28;20477;-42
2022/10/21 11:03:41;;;;;;;8.13;6.40;;;19.30;99.90;;;;;;5091124;28;20425;-42
2022/10/21 11:06:15;;;;;;;7.83;6.97;;;19.10;99.90;;;;;;5081282;28;20465;-41
2022/10/21 11:08:47;;;;;;;8.90;6.70;;;19.00;99.90;;;;;;5095739;28;20454;-41
2022/10/21 11:11:21;;;;;;;8.43;7.30;;;19.00;99.90;;;;;;5089423;28;20481;-39
2022/10/21 11:13:48;;;;;;;12.23;6.80;;;19.00;99.90;;;;;;5098359;28;20874;-42
2022/10/21 11:16:36;;;;;;;9.00;5.97;;;18.90;99.90;;;;;;5079741;28;20454;-41
2022/10/21 11:19:11;;;;;;;10.47;7.07;;;18.80;99.90;;;;;;5086287;28;20449;-42
2022/10/21 11:21:45;;;;;;;15.40;6.77;;;18.80;99.90;;;;;;5098496;28;20478;-41
2022/10/21 11:24:58;;;;;;;8.93;5.90;;;18.50;99.90;;;;;;5080789;28;20497;-40
2022/10/21 11:27:41;;;;;;;8.73;7.70;;;18.50;99.90;;;;;;5065757;28;20870;-41
2022/10/21 11:30:12;;;;;;;9.30;6.00;;;18.30;99.90;;;;;;5080272;28;20489;-41
2022/10/21 11:32:52;;;;;;;10.30;7.10;;;18.20;99.90;;;;;;5086979;28;20447;-40
2022/10/21 11:35:32;;;;;;;8.23;7.13;;;18.10;99.90;;;;;;5077841;28;20454;-39
2022/10/21 11:38:25;;;;;;;8.30;5.90;;;18.10;99.90;;;;;;5085020;28;20448;-41
2022/10/21 11:40:58;;;;;;;8.70;6.10;;;18.10;99.90;;;;;;5080535;28;20457;-39
2022/10/21 11:43:34;;;;;;;7.30;6.10;;;18.10;99.90;;;;;;5089401;28;20448;-42
2022/10/21 11:46:07;;;;;;;9.40;7.70;;;18.10;99.90;;;;;;5080868;28;20791;-40
2022/10/21 11:49:00;;;;;;;9.93;7.50;;;18.20;99.90;;;;;;5073192;28;20448;-41
2022/10/21 11:51:38;;;;;;;10.50;6.70;;;17.90;99.90;;;;;;5073743;28;20478;-41
2022/10/21 11:54:36;;;;;;;8.70;6.20;;;17.60;99.90;;;;;;5077802;28;20777;-41
2022/10/21 11:57:09;;;;;;;7.63;6.17;;;17.50;99.90;;;;;;5077476;28;20443;-40
2022/10/21 12:00:00;;;;;;;11.80;8.60;;;17.40;99.90;;;;;;5078000;28;20454;-41
2022/10/21 12:02:41;;;;;;;9.70;6.57;;;17.40;99.90;;;;;;5077594;28;20445;-41
2022/10/21 12:05:18;;;;;;;14.03;7.57;;;17.30;99.90;;;;;;5078068;28;20470;-43
2022/10/21 12:08:12;;;;;;;10.10;6.90;;;17.10;99.90;;;;;;5077578;28;20431;-43
2022/10/21 12:10:46;;;;;;;9.50;7.70;;;17.00;99.90;;;;;;5077312;28;20585;-40
2022/10/21 12:13:18;;;;;;;11.17;7.53;;;16.90;99.90;;;;;;5077422;28;20446;-43
2022/10/21 12:15:49;;;;;;;9.10;6.60;;;16.80;99.90;;;;;;5077396;28;20478;-42
2022/10/21 12:18:19;;;;;;;9.30;7.13;;;16.80;99.90;;;;;;5077558;28;20882;-40
2022/10/21 12:20:50;;;;;;;10.10;6.93;;;16.80;99.90;;;;;;5077542;28;20477;-42
2022/10/21 12:23:20;;;;;;;9.33;6.80;;;16.70;99.90;;;;;;5077521;28;20450;-40
2022/10/21 12:25:59;;;;;;;13.73;7.17;;;16.80;99.90;;;;;;5077586;28;20525;-44
2022/10/21 12:28:34;;;;;;;11.47;6.83;;;16.70;99.90;;;;;;5077490;28;20426;-42
2022/10/21 12:31:13;;;;;;;7.90;6.70;;;16.70;99.90;;;;;;5077480;28;20500;-40
2022/10/21 12:33:43;;;;;;;9.97;6.93;;;16.70;99.90;;;;;;5076934;28;20777;-40
2022/10/21 12:36:19;;;;;;;10.33;6.80;;;16.70;99.90;;;;;;5077775;28;20473;-41
2022/10/21 12:38:50;;;;;;;8.03;6.97;;;16.70;99.90;;;;;;5077243;28;20472;-39
2022/10/21 12:41:33;;;;;;;8.97;7.23;;;16.70;99.90;;;;;;5076922;28;20473;-43
2022/10/21 12:44:13;;;;;;;10.97;5.43;;;16.70;99.90;;;;;;5079316;28;20508;-38
2022/10/21 12:46:43;;;;;;;9.17;6.50;;;16.70;99.90;;;;;;5060947;28;20443;-39
2022/10/21 12:49:24;;;;;;;12.00;6.50;;;16.70;99.90;;;;;;5061300;28;20457;-39
2022/10/21 12:51:56;;;;;;;10.07;6.70;;;16.70;99.90;;;;;;5061690;28;20550;-42
2022/10/21 12:54:26;;;;;;;7.80;5.00;;;16.80;99.90;;;;;;5061348;28;20451;-41
2022/10/21 12:57:01;;;;;;;6.77;5.50;;;16.80;99.90;;;;;;5060833;28;20446;-39
2022/10/21 12:59:31;;;;;;;5.80;4.50;;;16.70;99.90;;;;;;5060766;28;20898;-41
2022/10/21 13:02:22;;;;;;;10.50;5.80;;;16.70;99.90;;;;;;5061035;28;20465;-40
2022/10/21 13:04:55;;;;;;;6.67;5.53;;;16.70;99.90;;;;;;5060828;28;20443;-39